createdAt,value
2023-04-18T00:00:12.421Z,8.00
2023-04-18T00:03:02.263Z,11.00
2023-04-18T00:05:31.390Z,12.50
2023-04-18T00:07:58.551Z,11.50
2023-04-18T00:10:26.057Z,11.25
2023-04-18T00:12:53.203Z,14.00
2023-04-18T00:15:20.441Z,14.00
2023-04-18T00:18:21.537Z,11.50
2023-04-18T00:20:48.890Z,12.50
2023-04-18T00:23:16.549Z,10.50
2023-04-18T00:25:43.916Z,8.50
2023-04-18T00:28:11.024Z,14.00
2023-04-18T00:30:38.501Z,15.00
2023-04-18T00:33:05.870Z,10.00
2023-04-18T00:35:33.440Z,12.00
2023-04-18T00:38:00.335Z,10.25
2023-04-18T00:40:27.698Z,10.00
2023-04-18T00:42:54.853Z,10.25
2023-04-18T00:45:22.373Z,9.00
2023-04-18T00:47:49.555Z,10.50
2023-04-18T00:50:17.128Z,10.25
2023-04-18T00:52:44.996Z,12.00
2023-04-18T00:55:12.961Z,7.00
2023-04-18T00:57:40.844Z,9.25
2023-04-18T01:00:12.468Z,9.00
2023-04-18T01:02:40.332Z,5.00
2023-04-18T01:05:08.829Z,5.00
2023-04-18T01:07:37.536Z,9.25
2023-04-18T01:10:05.524Z,11.25
2023-04-18T01:12:32.593Z,8.50
2023-04-18T01:15:00.870Z,10.00
2023-04-18T01:17:28.665Z,6.75
2023-04-18T01:23:37.579Z,10.50
2023-04-18T01:26:05.174Z,11.25
2023-04-18T01:28:36.782Z,11.00
2023-04-18T01:31:04.052Z,10.50
2023-04-18T01:33:31.182Z,10.25
2023-04-18T01:35:58.369Z,10.25
2023-04-18T01:38:25.487Z,11.50
2023-04-18T01:40:52.994Z,11.75
2023-04-18T01:43:20.016Z,12.50
2023-04-18T01:45:47.258Z,9.75
2023-04-18T01:48:14.550Z,10.75
2023-04-18T01:50:41.881Z,11.00
2023-04-18T01:53:08.855Z,10.50
2023-04-18T01:55:36.416Z,9.00
2023-04-18T01:58:03.362Z,8.75
2023-04-18T02:00:30.738Z,11.00
2023-04-18T02:03:01.079Z,14.25
2023-04-18T02:05:28.454Z,8.00
2023-04-18T02:07:56.080Z,14.50
2023-04-18T02:10:24.024Z,12.25
2023-04-18T02:12:50.921Z,12.25
2023-04-18T02:15:18.440Z,6.25
2023-04-18T02:17:45.894Z,10.50
2023-04-18T02:20:13.446Z,11.75
2023-04-18T02:22:40.527Z,12.00
2023-04-18T02:25:08.266Z,6.00
2023-04-18T02:27:38.076Z,8.75
2023-04-18T02:30:06.186Z,8.67
2023-04-18T02:32:33.460Z,7.00
2023-04-18T02:35:00.887Z,7.00
2023-04-18T02:37:28.213Z,9.00
2023-04-18T02:39:55.598Z,6.67
2023-04-18T02:42:22.617Z,6.67
2023-04-18T02:44:50.253Z,5.67
2023-04-18T02:47:17.277Z,7.00
2023-04-18T02:49:44.468Z,5.67
2023-04-18T02:52:11.652Z,5.00
2023-04-18T02:54:39.013Z,5.00
2023-04-18T02:57:06.029Z,6.33
2023-04-18T02:59:33.338Z,8.67
2023-04-18T03:02:00.442Z,9.67
2023-04-18T03:04:27.747Z,6.67
2023-04-18T03:06:56.321Z,4.33
2023-04-18T03:09:23.823Z,5.00
2023-04-18T03:11:51.103Z,7.50
2023-04-18T03:14:18.700Z,9.00
2023-04-18T03:16:45.997Z,8.67
2023-04-18T03:19:13.267Z,9.00
2023-04-18T03:21:40.394Z,8.75
2023-04-18T03:24:08.836Z,1.00
2023-04-18T03:26:36.606Z,8.00
2023-04-18T03:29:04.000Z,10.00
2023-04-18T03:31:32.179Z,9.33
2023-04-18T03:33:59.459Z,9.00
2023-04-18T03:36:27.645Z,9.33
2023-04-18T03:38:55.552Z,9.00
2023-04-18T03:41:22.791Z,6.67
2023-04-18T03:43:50.103Z,9.00
2023-04-18T03:46:17.226Z,9.00
2023-04-18T03:48:44.476Z,10.00
2023-04-18T03:51:11.728Z,7.67
2023-04-18T03:53:39.286Z,12.33
2023-04-18T03:56:06.642Z,10.33
2023-04-18T03:58:33.900Z,9.00
2023-04-18T04:01:01.264Z,11.00
2023-04-18T04:03:28.860Z,11.00
2023-04-18T04:05:56.236Z,10.00
2023-04-18T04:08:23.547Z,11.67
2023-04-18T04:10:50.643Z,11.00
2023-04-18T04:13:18.230Z,11.67
2023-04-18T04:15:45.456Z,10.00
2023-04-18T04:18:12.869Z,12.33
2023-04-18T04:20:40.059Z,11.33
2023-04-18T04:23:07.508Z,15.67
2023-04-18T04:25:34.751Z,15.33
2023-04-18T04:28:02.825Z,11.00
2023-04-18T04:30:29.932Z,13.33
2023-04-18T04:32:57.112Z,2.00
2023-04-18T04:35:24.125Z,16.67
2023-04-18T04:37:52.864Z,14.00
2023-04-18T04:40:20.157Z,13.00
2023-04-18T04:42:49.379Z,17.25
2023-04-18T04:45:17.560Z,17.00
2023-04-18T04:47:44.979Z,11.33
2023-04-18T04:50:15.622Z,16.00
2023-04-18T04:52:43.266Z,13.75
2023-04-18T04:55:10.867Z,17.00
2023-04-18T04:57:38.263Z,15.50
2023-04-18T05:00:07.223Z,13.33
2023-04-18T05:02:34.639Z,12.00
2023-04-18T05:05:01.733Z,11.67
2023-04-18T05:07:29.338Z,9.00
2023-04-18T05:09:56.390Z,17.33
2023-04-18T05:12:24.003Z,15.33
2023-04-18T05:14:51.228Z,12.33
2023-04-18T05:17:18.416Z,15.00
2023-04-18T05:19:45.757Z,18.00
2023-04-18T05:22:13.289Z,14.67
2023-04-18T05:24:40.797Z,13.67
2023-04-18T05:27:08.616Z,14.67
2023-04-18T05:29:35.870Z,14.67
2023-04-18T05:32:03.490Z,11.67
2023-04-18T05:34:31.121Z,11.33
2023-04-18T05:36:58.866Z,13.33
2023-04-18T05:39:26.030Z,13.00
2023-04-18T05:41:53.247Z,15.33
2023-04-18T05:44:20.938Z,13.00
2023-04-18T05:46:51.594Z,18.67
2023-04-18T05:49:19.768Z,12.67
2023-04-18T05:51:49.788Z,17.00
2023-04-18T05:54:17.047Z,9.00
2023-04-18T05:56:44.639Z,12.67
2023-04-18T05:59:14.918Z,12.33
2023-04-18T06:01:42.309Z,15.33
2023-04-18T06:04:09.696Z,15.33
2023-04-18T06:06:37.264Z,13.67
2023-04-18T06:09:04.487Z,12.00
2023-04-18T06:11:36.033Z,11.00
2023-04-18T06:14:03.797Z,12.00
2023-04-18T06:16:31.037Z,16.00
2023-04-18T06:19:00.926Z,12.00
2023-04-18T06:21:28.822Z,11.33
2023-04-18T06:23:55.820Z,13.67
2023-04-18T06:26:23.350Z,11.67
2023-04-18T06:28:50.667Z,13.00
2023-04-18T06:31:17.985Z,9.67
2023-04-18T06:33:45.118Z,12.00
2023-04-18T06:36:12.660Z,13.00
2023-04-18T06:38:39.564Z,14.00
2023-04-18T06:41:06.974Z,12.00
2023-04-18T06:43:35.931Z,14.33
2023-04-18T06:46:05.491Z,16.67
2023-04-18T06:48:32.929Z,14.67
2023-04-18T06:51:00.390Z,12.00
2023-04-18T06:53:27.369Z,15.67
2023-04-18T06:55:55.126Z,17.67
2023-04-18T06:58:22.169Z,13.67
2023-04-18T07:00:52.178Z,14.00
2023-04-18T07:03:19.514Z,14.00
2023-04-18T07:05:47.296Z,15.67
2023-04-18T07:08:14.263Z,8.00
2023-04-18T07:10:41.651Z,16.67
2023-04-18T07:13:08.708Z,14.00
2023-04-18T07:15:36.344Z,17.00
2023-04-18T07:18:03.706Z,15.00
2023-04-18T07:20:31.309Z,12.00
2023-04-18T07:22:58.217Z,16.00
2023-04-18T07:25:25.619Z,8.00
2023-04-18T07:27:52.982Z,12.00
2023-04-18T07:30:20.216Z,14.33
2023-04-18T07:32:47.686Z,11.33
2023-04-18T07:35:15.475Z,14.00
2023-04-18T07:37:42.427Z,15.00
2023-04-18T07:40:10.092Z,15.67
2023-04-18T07:42:37.322Z,14.33
2023-04-18T07:45:05.154Z,11.67
2023-04-18T07:47:33.470Z,13.67
2023-04-18T07:50:01.424Z,11.00
2023-04-18T07:52:28.386Z,13.67
2023-04-18T07:54:55.837Z,11.00
2023-04-18T07:57:22.971Z,13.33
2023-04-18T07:59:53.846Z,14.67
2023-04-18T08:02:21.837Z,11.67
2023-04-18T08:04:50.271Z,13.33
2023-04-18T08:07:17.438Z,12.00
2023-04-18T08:09:44.628Z,11.67
2023-04-18T08:12:12.001Z,14.67
2023-04-18T08:14:39.344Z,14.33
2023-04-18T08:17:06.393Z,11.67
2023-04-18T08:19:33.851Z,13.67
2023-04-18T08:22:09.747Z,14.67
2023-04-18T08:24:46.440Z,14.67
2023-04-18T08:27:18.594Z,13.33
2023-04-18T08:29:46.594Z,14.67
2023-04-18T08:32:13.501Z,13.67
2023-04-18T08:34:41.075Z,10.33
2023-04-18T08:37:08.472Z,13.00
2023-04-18T08:39:35.897Z,14.00
2023-04-18T08:42:03.960Z,11.67
2023-04-18T08:44:31.495Z,12.67
2023-04-18T08:47:00.239Z,16.00
2023-04-18T08:49:28.538Z,12.67
2023-04-18T08:51:57.609Z,13.00
2023-04-18T08:54:27.355Z,13.33
2023-04-18T08:57:05.006Z,6.67
2023-04-18T08:59:32.565Z,12.00
2023-04-18T09:02:01.631Z,14.00
2023-04-18T09:04:41.057Z,14.67
2023-04-18T09:07:10.285Z,12.67
2023-04-18T09:09:40.690Z,13.33
2023-04-18T09:12:09.392Z,15.00
2023-04-18T09:14:37.541Z,13.00
2023-04-18T09:17:05.601Z,13.00
2023-04-18T09:19:34.223Z,13.33
2023-04-18T09:22:02.283Z,11.75
2023-04-18T09:24:29.633Z,11.50
2023-04-18T09:26:58.902Z,8.25
2023-04-18T09:29:46.783Z,11.00
2023-04-18T09:32:29.607Z,7.33
2023-04-18T09:35:04.576Z,11.33
2023-04-18T09:37:32.009Z,11.67
2023-04-18T09:39:59.640Z,11.00
2023-04-18T09:42:28.808Z,12.00
2023-04-18T09:45:02.265Z,12.67
2023-04-18T09:47:32.580Z,12.67
2023-04-18T09:49:59.856Z,12.00
2023-04-18T09:52:33.452Z,9.67
2023-04-18T09:55:02.943Z,11.00
2023-04-18T09:57:31.477Z,10.67
2023-04-18T09:59:58.678Z,6.33
2023-04-18T10:02:29.564Z,11.00
2023-04-18T10:04:59.673Z,8.33
2023-04-18T10:07:27.773Z,10.33
2023-04-18T10:09:54.978Z,8.33
2023-04-18T10:12:22.090Z,8.00
2023-04-18T10:14:49.780Z,9.33
2023-04-18T10:17:16.929Z,7.50
2023-04-18T10:19:46.474Z,9.00
2023-04-18T10:22:13.638Z,9.00
2023-04-18T10:24:48.379Z,10.75
2023-04-18T10:27:19.549Z,7.00
2023-04-18T10:29:49.394Z,11.00
2023-04-18T10:32:18.289Z,8.00
2023-04-18T10:34:49.705Z,7.50
2023-04-18T10:37:17.809Z,7.25
2023-04-18T10:40:03.055Z,8.00
2023-04-18T10:42:48.058Z,8.50
2023-04-18T10:45:26.380Z,7.75
2023-04-18T10:48:30.868Z,3.25
2023-04-18T10:51:17.946Z,6.00
2023-04-18T10:54:03.949Z,6.25
2023-04-18T10:56:31.915Z,5.00
2023-04-18T10:59:02.192Z,7.00
2023-04-18T11:01:33.262Z,6.75
2023-04-18T11:04:01.320Z,6.00
2023-04-18T11:06:29.109Z,1.75
2023-04-18T11:09:13.786Z,6.25
2023-04-18T11:11:42.133Z,5.00
2023-04-18T11:14:09.227Z,6.25
2023-04-18T11:16:36.622Z,2.00
2023-04-18T11:19:20.461Z,7.75
2023-04-18T11:21:48.172Z,6.25
2023-04-18T11:24:23.265Z,4.50
2023-04-18T11:26:50.762Z,1.00
2023-04-18T11:29:19.128Z,6.50
2023-04-18T11:31:58.362Z,4.00
2023-04-18T11:34:31.844Z,5.00
2023-04-18T11:36:59.665Z,6.00
2023-04-18T11:39:26.703Z,4.75
2023-04-18T11:41:56.524Z,5.00
2023-04-18T11:44:25.025Z,4.50
2023-04-18T11:46:55.438Z,4.75
2023-04-18T11:49:27.062Z,5.00
2023-04-18T11:51:54.354Z,5.00
2023-04-18T11:54:44.468Z,5.00
2023-04-18T11:57:29.586Z,4.75
2023-04-18T12:00:01.088Z,4.00
2023-04-18T12:02:59.493Z,4.00
2023-04-18T12:05:29.344Z,6.00
2023-04-18T12:07:57.753Z,4.25
2023-04-18T12:10:27.769Z,3.25
2023-04-18T12:12:56.561Z,4.00
2023-04-18T12:15:27.219Z,4.00
2023-04-18T12:18:02.608Z,4.25
2023-04-18T12:20:37.701Z,3.25
2023-04-18T12:23:05.238Z,3.50
2023-04-18T12:25:32.904Z,3.00
2023-04-18T12:28:13.877Z,3.25
2023-04-18T12:30:42.195Z,3.00
2023-04-18T12:33:09.366Z,4.00
2023-04-18T12:35:36.876Z,3.00
2023-04-18T12:38:04.999Z,3.25
2023-04-18T12:40:32.041Z,3.75
2023-04-18T12:43:00.124Z,3.75
2023-04-18T12:45:29.565Z,3.00
2023-04-18T12:47:56.751Z,4.50
2023-04-18T12:50:26.066Z,3.25
2023-04-18T12:52:55.185Z,4.50
2023-04-18T12:55:22.921Z,3.00
2023-04-18T12:57:52.087Z,3.50
2023-04-18T13:00:19.209Z,2.00
2023-04-18T13:02:46.538Z,1.00
2023-04-18T13:05:15.050Z,2.00
2023-04-18T13:07:43.204Z,3.75
2023-04-18T13:10:11.984Z,2.25
2023-04-18T13:12:40.899Z,2.50
2023-04-18T13:15:09.233Z,2.75
2023-04-18T13:17:37.338Z,2.00
2023-04-18T13:20:12.815Z,1.00
2023-04-18T13:22:41.631Z,2.00
2023-04-18T13:25:10.799Z,0.00
2023-04-18T13:27:41.585Z,2.00
2023-04-18T13:30:11.108Z,2.00
2023-04-18T13:32:40.738Z,2.00
2023-04-18T13:35:09.267Z,0.75
2023-04-18T13:37:37.517Z,2.00
2023-04-18T13:40:06.755Z,1.00
2023-04-18T13:42:34.489Z,2.00
2023-04-18T13:45:01.796Z,0.75
2023-04-18T13:47:29.861Z,1.00
2023-04-18T13:49:57.882Z,1.50
2023-04-18T13:52:26.143Z,2.00
2023-04-18T13:54:53.315Z,2.00
2023-04-18T13:57:21.025Z,2.00
2023-04-18T13:59:48.593Z,1.25
2023-04-18T14:02:15.990Z,1.00
2023-04-18T14:04:43.257Z,2.75
2023-04-18T14:07:10.828Z,2.50
2023-04-18T14:09:37.867Z,2.00
2023-04-18T14:12:05.513Z,2.75
2023-04-18T14:14:32.881Z,1.00
2023-04-18T14:17:00.488Z,1.00
2023-04-18T14:19:27.664Z,2.50
2023-04-18T14:21:55.449Z,3.00
2023-04-18T14:24:22.480Z,2.00
2023-04-18T14:26:49.704Z,2.00
2023-04-18T14:29:16.967Z,1.50
2023-04-18T14:31:44.397Z,3.00
2023-04-18T14:34:11.339Z,3.00
2023-04-18T14:36:38.925Z,3.00
2023-04-18T14:39:05.867Z,1.25
2023-04-18T14:41:33.157Z,1.25
2023-04-18T14:44:00.329Z,3.00
2023-04-18T14:46:28.658Z,2.00
2023-04-18T14:48:55.819Z,1.75
2023-04-18T14:51:23.978Z,3.00
2023-04-18T14:53:51.433Z,3.00
2023-04-18T14:56:21.252Z,4.50
2023-04-18T14:58:48.784Z,3.00
2023-04-18T15:01:17.687Z,3.75
2023-04-18T15:03:45.572Z,3.50
2023-04-18T15:06:13.581Z,3.00
2023-04-18T15:08:40.848Z,2.00
2023-04-18T15:11:08.391Z,2.75
2023-04-18T15:13:35.736Z,4.00
2023-04-18T15:16:03.649Z,2.25
2023-04-18T15:18:30.903Z,3.00
2023-04-18T15:21:01.198Z,3.00
2023-04-18T15:23:28.277Z,3.00
2023-04-18T15:25:56.329Z,4.75
2023-04-18T15:28:23.356Z,4.00
2023-04-18T15:30:50.610Z,3.00
2023-04-18T15:33:19.242Z,3.00
2023-04-18T15:35:47.876Z,3.00
2023-04-18T15:38:15.098Z,2.75
2023-04-18T15:40:43.634Z,3.25
2023-04-18T15:43:11.204Z,4.25
2023-04-18T15:45:39.844Z,3.25
2023-04-18T15:48:07.232Z,4.25
2023-04-18T15:50:34.806Z,5.25
2023-04-18T15:53:02.461Z,3.00
2023-04-18T15:55:29.928Z,5.00
2023-04-18T15:57:57.163Z,4.25
2023-04-18T16:00:24.498Z,6.00
2023-04-18T16:02:52.050Z,4.25
2023-04-18T16:05:19.577Z,4.50
2023-04-18T16:07:46.579Z,3.00
2023-04-18T16:10:15.449Z,5.00
2023-04-18T16:12:42.547Z,4.00
2023-04-18T16:15:10.314Z,5.75
2023-04-18T16:17:38.347Z,4.75
2023-04-18T16:20:08.326Z,5.25
2023-04-18T16:22:35.634Z,5.75
2023-04-18T16:25:04.103Z,4.50
2023-04-18T16:27:31.049Z,5.67
2023-04-18T16:29:58.301Z,4.67
2023-04-18T16:32:25.582Z,4.00
2023-04-18T16:34:52.964Z,3.67
2023-04-18T16:37:20.276Z,5.00
2023-04-18T16:39:47.699Z,5.33
2023-04-18T16:42:15.859Z,5.00
2023-04-18T16:44:45.299Z,5.00
2023-04-18T16:47:12.366Z,1.00
2023-04-18T16:49:40.679Z,5.00
2023-04-18T16:52:07.604Z,6.00
2023-04-18T16:54:35.187Z,7.00
2023-04-18T16:57:02.947Z,5.67
2023-04-18T16:59:30.282Z,7.00
2023-04-18T17:01:59.231Z,6.00
2023-04-18T17:04:29.674Z,8.00
2023-04-18T17:06:56.887Z,6.33
2023-04-18T17:09:24.482Z,5.33
2023-04-18T17:11:51.624Z,7.33
2023-04-18T17:14:19.021Z,5.00
2023-04-18T17:16:46.273Z,6.33
2023-04-18T17:19:15.271Z,8.00
2023-04-18T17:21:43.598Z,7.00
2023-04-18T17:24:11.143Z,7.00
2023-04-18T17:26:39.005Z,7.00
2023-04-18T17:29:06.411Z,9.00
2023-04-18T17:31:33.982Z,6.00
2023-04-18T17:34:01.276Z,6.00
2023-04-18T17:36:28.402Z,9.33
2023-04-18T17:38:56.130Z,6.00
2023-04-18T17:41:23.433Z,8.00
2023-04-18T17:43:51.238Z,7.00
2023-04-18T17:46:18.576Z,8.33
2023-04-18T17:48:45.889Z,8.00
2023-04-18T17:51:13.014Z,8.00
2023-04-18T17:53:40.548Z,6.00
2023-04-18T17:56:07.489Z,6.33
2023-04-18T17:58:34.695Z,9.67
2023-04-18T18:01:01.759Z,10.33
2023-04-18T18:03:29.320Z,9.00
2023-04-18T18:05:56.529Z,11.67
2023-04-18T18:08:24.622Z,10.33
2023-04-18T18:10:51.651Z,4.00
2023-04-18T18:13:18.865Z,10.00
2023-04-18T18:15:46.120Z,7.67
2023-04-18T18:18:13.481Z,11.67
2023-04-18T18:20:43.930Z,15.33
2023-04-18T18:23:11.428Z,17.33
2023-04-18T18:25:38.576Z,17.67
2023-04-18T18:28:07.288Z,15.00
2023-04-18T18:30:34.696Z,13.33
2023-04-18T18:33:02.222Z,14.33
2023-04-18T18:35:29.268Z,17.67
2023-04-18T18:37:56.875Z,17.67
2023-04-18T18:40:24.181Z,16.67
2023-04-18T18:42:53.967Z,16.00
2023-04-18T18:45:21.782Z,17.67
2023-04-18T18:47:49.083Z,18.00
2023-04-18T18:50:16.555Z,17.00
2023-04-18T18:52:44.170Z,16.00
2023-04-18T18:55:11.393Z,17.67
2023-04-18T18:57:38.899Z,16.67
2023-04-18T19:00:11.119Z,18.33
2023-04-18T19:02:39.407Z,20.00
2023-04-18T19:05:07.347Z,17.00
2023-04-18T19:07:34.830Z,16.67
2023-04-18T19:10:02.080Z,11.67
2023-04-18T19:12:29.736Z,16.33
2023-04-18T19:14:56.848Z,17.33
2023-04-18T19:17:24.942Z,17.00
2023-04-18T19:19:53.189Z,8.00
2023-04-18T19:22:20.531Z,22.00
2023-04-18T19:24:47.722Z,17.67
2023-04-18T19:27:15.421Z,18.33
2023-04-18T19:29:42.453Z,17.00
2023-04-18T19:32:09.946Z,21.00
2023-04-18T19:34:37.889Z,21.67
2023-04-18T19:37:05.527Z,15.67
2023-04-18T19:39:32.787Z,17.67
2023-04-18T19:42:00.797Z,17.67
2023-04-18T19:44:27.866Z,16.00
2023-04-18T19:46:55.491Z,21.00
2023-04-18T19:49:22.794Z,16.00
2023-04-18T19:51:52.476Z,20.33
2023-04-18T19:54:21.880Z,16.00
2023-04-18T19:56:50.367Z,19.00
2023-04-18T19:59:17.383Z,18.67
2023-04-18T20:01:45.016Z,16.67
2023-04-18T20:04:12.460Z,17.33
2023-04-18T20:06:39.739Z,18.67
2023-04-18T20:09:08.662Z,19.67
2023-04-18T20:11:36.387Z,20.33
2023-04-18T20:14:03.589Z,17.00
2023-04-18T20:16:31.853Z,15.67
2023-04-18T20:18:59.302Z,21.67
2023-04-18T20:21:27.373Z,20.00
2023-04-18T20:23:54.576Z,21.00
2023-04-18T20:26:22.183Z,23.25
2023-04-18T20:28:49.114Z,22.00
2023-04-18T20:31:16.504Z,22.00
2023-04-18T20:33:44.000Z,22.00
2023-04-18T20:36:11.478Z,20.67
2023-04-18T20:38:40.338Z,20.67
2023-04-18T20:41:10.882Z,22.00
2023-04-18T20:43:38.708Z,8.33
2023-04-18T20:46:07.097Z,20.67
2023-04-18T20:48:36.368Z,20.00
2023-04-18T20:51:06.642Z,23.67
2023-04-18T20:53:34.369Z,21.00
2023-04-18T20:56:03.723Z,22.25
2023-04-18T20:58:31.962Z,23.50
2023-04-18T21:00:59.920Z,22.00
2023-04-18T21:03:27.355Z,23.25
2023-04-18T21:05:54.765Z,24.25
2023-04-18T21:08:21.821Z,26.75
2023-04-18T21:10:49.257Z,29.50
2023-04-18T21:13:16.499Z,27.00
2023-04-18T21:15:43.892Z,20.00
2023-04-18T21:18:11.338Z,26.00
2023-04-18T21:20:38.786Z,21.50
2023-04-18T21:23:06.192Z,26.25
2023-04-18T21:25:33.678Z,27.00
2023-04-18T21:28:00.725Z,24.50
2023-04-18T21:30:28.150Z,25.50
2023-04-18T21:32:55.579Z,25.25
2023-04-18T21:35:24.684Z,25.75
2023-04-18T21:37:51.972Z,27.00
2023-04-18T21:40:19.551Z,28.00
2023-04-18T21:42:47.771Z,22.25
2023-04-18T21:45:17.293Z,26.75
2023-04-18T21:47:44.631Z,11.50
2023-04-18T21:50:11.917Z,25.00
2023-04-18T21:52:38.953Z,25.00
2023-04-18T21:55:06.620Z,26.00
2023-04-18T21:57:33.614Z,26.00
2023-04-18T22:00:00.925Z,26.75
2023-04-18T22:02:28.236Z,25.00
2023-04-18T22:04:55.678Z,29.50
2023-04-18T22:07:24.226Z,23.00
2023-04-18T22:09:51.745Z,28.50
2023-04-18T22:12:18.716Z,26.00
2023-04-18T22:14:48.507Z,26.75
2023-04-18T22:17:16.352Z,27.25
2023-04-18T22:19:44.658Z,29.00
2023-04-18T22:22:11.947Z,28.75
2023-04-18T22:24:39.303Z,27.50
2023-04-18T22:27:06.251Z,27.25
2023-04-18T22:29:33.736Z,28.50
2023-04-18T22:32:00.788Z,26.75
2023-04-18T22:34:28.010Z,27.00
2023-04-18T22:36:54.959Z,29.50
2023-04-18T22:39:22.366Z,28.00
2023-04-18T22:41:49.268Z,26.50
2023-04-18T22:44:16.855Z,30.75
2023-04-18T22:46:44.882Z,28.25
2023-04-18T22:49:12.325Z,29.50
2023-04-18T22:51:39.568Z,31.00
2023-04-18T22:54:06.901Z,33.00
2023-04-18T22:56:33.911Z,34.25
2023-04-18T22:59:01.184Z,32.00
2023-04-18T23:01:28.614Z,30.75
2023-04-18T23:03:56.281Z,27.00
2023-04-18T23:06:23.682Z,34.50
2023-04-18T23:08:51.501Z,30.75
2023-04-18T23:11:18.475Z,32.00
2023-04-18T23:13:45.982Z,25.50
2023-04-18T23:16:13.119Z,31.50
2023-04-18T23:18:40.570Z,29.25
2023-04-18T23:21:07.688Z,27.75
2023-04-18T23:23:35.149Z,27.00
2023-04-18T23:26:02.170Z,30.25
2023-04-18T23:28:29.759Z,29.50
2023-04-18T23:30:56.912Z,28.25
2023-04-18T23:33:24.102Z,32.00
2023-04-18T23:35:51.058Z,30.75
2023-04-18T23:38:18.538Z,28.75
2023-04-18T23:40:45.559Z,29.25
2023-04-18T23:43:12.782Z,29.25
2023-04-18T23:45:39.918Z,26.75
2023-04-18T23:48:07.177Z,25.00
2023-04-18T23:50:36.413Z,28.25
2023-04-18T23:53:03.947Z,27.75
2023-04-18T23:55:30.918Z,27.00
2023-04-18T23:57:58.280Z,29.75
